Terminal Aerodrome Forecast
Issued by NWS

Home | Current Version | Previous Version | Text Only | Print | Product List | Glossary On
Versions: 1 2 3 4 5 6 7 8 9 10 11 12 13 14 15 16 17 18 19 20
915
FTUS43 KSGF 252320
TAFJLN
TAF
KJLN 252320Z 2600/2624 12005KT P6SM VCTS SCT050CB OVC100
      TEMPO 2600/2602 5SM -TSRA BR OVC050CB
     FM260200 16004KT P6SM VCTS SCT200CB
     FM260900 12004KT P6SM VCTS SCT040CB BKN200 PROB30 2610/2612 4SM
      -TSRA OVC040CB
     FM261500 18005KT P6SM BKN120=

USA.gov is the U.S. government's official web portal to all federal, state and local government web resources and services.